createdAt,value
2018-12-23T00:01:51.269Z,81.60
2018-12-23T00:04:28.102Z,83.19
2018-12-23T00:07:02.870Z,83.28
2018-12-23T00:09:43.470Z,83.72
2018-12-23T00:12:18.371Z,84.33
2018-12-23T00:14:55.906Z,84.75
2018-12-23T00:17:31.875Z,85.42
2018-12-23T00:20:09.059Z,85.19
2018-12-23T00:22:44.069Z,86.03
2018-12-23T00:28:17.259Z,87.11
2018-12-23T00:31:06.247Z,88.29
2018-12-23T00:33:46.348Z,88.42
2018-12-23T00:36:27.473Z,89.10
2018-12-23T00:39:10.470Z,89.73
2018-12-23T00:41:57.643Z,90.03
2018-12-23T00:47:38.434Z,90.83
2018-12-23T00:53:13.075Z,90.53
2018-12-23T00:55:51.468Z,91.01
2018-12-23T00:58:37.954Z,91.19
2018-12-23T01:01:17.143Z,90.85
2018-12-23T01:04:05.394Z,90.74
2018-12-23T01:06:54.359Z,90.26
2018-12-23T01:09:45.588Z,89.94
2018-12-23T01:12:21.075Z,89.87
2018-12-23T01:14:55.659Z,89.35
2018-12-23T01:17:30.491Z,89.73
2018-12-23T01:20:09.851Z,89.82
2018-12-23T01:22:47.476Z,89.66
2018-12-23T01:25:30.318Z,89.02
2018-12-23T01:28:06.802Z,89.32
2018-12-23T01:30:57.435Z,89.60
2018-12-23T01:36:31.747Z,89.89
2018-12-23T01:39:07.611Z,89.74
2018-12-23T01:41:47.774Z,89.55
2018-12-23T01:44:26.678Z,89.83
2018-12-23T01:47:01.562Z,89.46
2018-12-23T01:49:41.871Z,89.33
2018-12-23T01:55:16.487Z,88.48
2018-12-23T01:57:56.902Z,88.58
2018-12-23T02:00:45.838Z,87.73
2018-12-23T02:03:23.662Z,88.25
2018-12-23T02:06:04.059Z,87.64
2018-12-23T02:08:38.705Z,87.31
2018-12-23T02:11:26.156Z,87.91
2018-12-23T02:14:22.967Z,87.20
2018-12-23T02:16:58.303Z,86.99
2018-12-23T02:19:38.978Z,87.18
2018-12-23T02:22:26.396Z,87.03
2018-12-23T02:25:02.736Z,87.31
2018-12-23T02:27:37.490Z,87.33
2018-12-23T02:30:12.559Z,87.50
2018-12-23T02:35:43.827Z,86.56
2018-12-23T02:38:19.102Z,86.65
2018-12-23T02:43:50.763Z,86.55
2018-12-23T02:46:47.811Z,86.05
2018-12-23T02:52:17.279Z,85.97
2018-12-23T02:54:54.763Z,86.23
2018-12-23T02:57:30.994Z,86.39
2018-12-23T03:00:07.078Z,86.57
2018-12-23T03:02:47.991Z,86.89
2018-12-23T03:05:28.662Z,87.18
2018-12-23T03:10:59.599Z,87.43
2018-12-23T03:13:47.799Z,87.08
2018-12-23T03:16:22.712Z,86.55
2018-12-23T03:22:06.708Z,86.99
2018-12-23T03:24:50.866Z,87.00
2018-12-23T03:27:25.292Z,87.10
2018-12-23T03:38:54.163Z,87.35
2018-12-23T03:44:25.919Z,86.76
2018-12-23T03:47:13.145Z,86.92
2018-12-23T03:52:44.215Z,87.03
2018-12-23T03:55:18.700Z,86.25
2018-12-23T03:57:53.459Z,85.85
2018-12-23T04:00:28.264Z,85.47
2018-12-23T04:03:03.231Z,85.94
2018-12-23T04:08:38.774Z,85.39
2018-12-23T04:11:13.802Z,85.51
2018-12-23T04:16:44.212Z,85.24
2018-12-23T04:19:32.566Z,85.11
2018-12-23T04:22:07.358Z,85.66
2018-12-23T04:25:00.676Z,85.20
2018-12-23T04:27:35.573Z,85.26
2018-12-23T04:30:10.662Z,85.05
2018-12-23T04:32:45.039Z,85.30
2018-12-23T04:35:34.058Z,85.26
2018-12-23T04:38:12.284Z,85.25
2018-12-23T04:41:05.543Z,84.88
2018-12-23T04:43:59.352Z,84.77
2018-12-23T04:46:34.736Z,84.80
2018-12-23T04:49:09.293Z,84.61
2018-12-23T04:51:44.046Z,84.54
2018-12-23T04:54:18.576Z,84.34
2018-12-23T04:56:52.979Z,84.47
2018-12-23T04:59:27.468Z,84.02
2018-12-23T05:02:07.894Z,84.71
2018-12-23T05:04:46.466Z,85.41
2018-12-23T05:07:26.414Z,84.56
2018-12-23T05:10:01.085Z,84.20
2018-12-23T05:12:50.572Z,84.91
2018-12-23T05:15:26.206Z,84.38
2018-12-23T05:18:06.727Z,84.46
2018-12-23T05:20:45.348Z,84.91
2018-12-23T05:23:20.359Z,85.20
2018-12-23T05:25:55.047Z,85.27
2018-12-23T05:28:31.461Z,85.03
2018-12-23T05:31:18.815Z,85.24
2018-12-23T05:33:53.332Z,84.43
2018-12-23T05:36:33.984Z,84.97
2018-12-23T05:42:07.220Z,84.37
2018-12-23T05:44:41.689Z,84.05
2018-12-23T05:50:24.829Z,83.91
2018-12-23T05:52:59.588Z,83.83
2018-12-23T05:55:39.295Z,83.07
2018-12-23T05:58:16.242Z,82.21
2018-12-23T06:00:57.112Z,83.39
2018-12-23T06:03:31.618Z,83.36
2018-12-23T06:06:25.201Z,82.84
2018-12-23T06:09:15.183Z,82.85
2018-12-23T06:14:46.419Z,83.01
2018-12-23T06:17:21.227Z,83.30
2018-12-23T06:20:12.611Z,83.46
2018-12-23T06:22:59.816Z,83.35
2018-12-23T06:25:38.635Z,82.97
2018-12-23T06:28:14.535Z,83.56
2018-12-23T06:30:51.130Z,84.01
2018-12-23T06:33:26.811Z,83.22
2018-12-23T06:36:02.253Z,83.22
2018-12-23T06:38:40.437Z,83.44
2018-12-23T06:41:15.595Z,83.45
2018-12-23T06:43:50.050Z,84.06
2018-12-23T06:49:21.004Z,84.57
2018-12-23T06:51:56.997Z,84.16
2018-12-23T06:54:31.615Z,84.59
2018-12-23T06:57:07.595Z,84.77
2018-12-23T07:02:56.932Z,85.19
2018-12-23T07:05:33.947Z,85.03
2018-12-23T07:11:04.482Z,85.24
2018-12-23T07:16:36.879Z,85.07
2018-12-23T07:22:13.546Z,84.77
2018-12-23T07:24:48.307Z,84.71
2018-12-23T07:27:22.970Z,85.27
2018-12-23T07:29:57.453Z,85.21
2018-12-23T07:32:42.951Z,85.79
2018-12-23T07:35:18.035Z,85.82
2018-12-23T07:37:56.299Z,85.53
2018-12-23T07:43:30.879Z,86.23
2018-12-23T07:46:06.439Z,85.78
2018-12-23T07:54:44.627Z,86.78
2018-12-23T07:57:23.732Z,87.23
2018-12-23T07:59:58.544Z,86.97
2018-12-23T08:02:39.146Z,87.28
2018-12-23T08:05:27.475Z,88.18
2018-12-23T08:11:10.826Z,86.32
2018-12-23T08:13:51.732Z,86.12
2018-12-23T08:16:44.849Z,86.16
2018-12-23T08:19:29.413Z,85.80
2018-12-23T08:22:04.681Z,85.57
2018-12-23T08:24:39.477Z,85.59
2018-12-23T08:27:20.273Z,85.30
2018-12-23T08:29:58.310Z,85.04
2018-12-23T08:32:32.799Z,85.37
2018-12-23T08:35:17.281Z,85.85
2018-12-23T08:37:58.187Z,86.06
2018-12-23T08:40:40.326Z,85.50
2018-12-23T08:43:27.495Z,85.24
2018-12-23T08:46:09.782Z,84.84
2018-12-23T08:48:59.682Z,85.24
2018-12-23T08:51:34.148Z,86.29
2018-12-23T08:54:12.366Z,85.71
2018-12-23T08:57:00.063Z,84.79
2018-12-23T08:59:34.735Z,85.20
2018-12-23T09:02:10.943Z,85.55
2018-12-23T09:04:46.120Z,85.33
2018-12-23T09:07:25.210Z,84.83
2018-12-23T09:10:06.745Z,84.61
2018-12-23T09:12:44.877Z,84.99
2018-12-23T09:15:23.347Z,84.91
2018-12-23T09:18:19.240Z,83.76
2018-12-23T09:20:53.230Z,83.94
2018-12-23T09:23:28.071Z,84.49
2018-12-23T09:26:09.764Z,83.99
2018-12-23T09:28:48.390Z,83.64
2018-12-23T09:31:26.862Z,82.43
2018-12-23T09:34:05.622Z,82.69
2018-12-23T09:36:51.217Z,82.30
2018-12-23T09:42:28.558Z,82.29
2018-12-23T09:51:09.880Z,81.08
2018-12-23T09:53:51.175Z,80.51
2018-12-23T09:56:25.819Z,80.21
2018-12-23T09:59:02.448Z,78.76
2018-12-23T10:01:37.150Z,79.27
2018-12-23T10:04:11.658Z,77.89
2018-12-23T10:06:46.640Z,78.46
2018-12-23T10:09:27.015Z,77.19
2018-12-23T10:15:14.136Z,77.75
2018-12-23T10:18:07.415Z,76.87
2018-12-23T10:20:48.255Z,77.33
2018-12-23T10:23:23.358Z,77.28
2018-12-23T10:25:58.523Z,77.10
2018-12-23T10:28:36.563Z,76.73
2018-12-23T10:31:11.055Z,76.14
2018-12-23T10:33:46.011Z,76.17
2018-12-23T10:36:20.595Z,75.13
2018-12-23T10:38:54.974Z,74.47
2018-12-23T10:41:29.862Z,74.88
2018-12-23T10:44:04.792Z,75.13
2018-12-23T10:46:39.436Z,74.76
2018-12-23T10:49:14.560Z,73.72
2018-12-23T10:51:51.426Z,73.99
2018-12-23T10:54:26.249Z,74.01
2018-12-23T10:57:05.450Z,74.92
2018-12-23T10:59:40.195Z,74.49
2018-12-23T11:02:14.670Z,73.79
2018-12-23T11:04:49.499Z,72.58
2018-12-23T11:07:30.582Z,72.33
2018-12-23T11:10:09.775Z,71.49
2018-12-23T11:12:50.064Z,72.04
2018-12-23T11:15:27.390Z,72.42
2018-12-23T11:18:08.249Z,72.91
2018-12-23T11:20:54.366Z,72.32
2018-12-23T11:23:31.902Z,72.30
2018-12-23T11:26:27.562Z,71.94
2018-12-23T11:29:14.041Z,71.49
2018-12-23T11:31:50.096Z,70.77
2018-12-23T11:37:33.907Z,69.94
2018-12-23T11:40:14.452Z,70.14
2018-12-23T11:42:49.069Z,70.19
2018-12-23T11:48:22.851Z,70.42
2018-12-23T11:51:09.261Z,70.02
2018-12-23T11:53:55.890Z,69.83
2018-12-23T11:56:30.720Z,70.13
2018-12-23T11:59:05.723Z,69.66
2018-12-23T12:01:49.513Z,70.34
2018-12-23T12:04:30.193Z,69.76
2018-12-23T12:07:14.845Z,69.79
2018-12-23T12:09:50.568Z,70.10
2018-12-23T12:12:25.267Z,69.73
2018-12-23T12:14:59.767Z,69.46
2018-12-23T12:17:34.319Z,68.82
2018-12-23T12:20:08.862Z,69.77
2018-12-23T12:22:43.582Z,70.09
2018-12-23T12:25:18.967Z,70.56
2018-12-23T12:27:54.616Z,69.68
2018-12-23T12:30:29.319Z,69.92
2018-12-23T12:33:04.395Z,69.97
2018-12-23T12:35:39.027Z,70.19
2018-12-23T12:38:13.658Z,69.54
2018-12-23T12:40:48.218Z,70.47
2018-12-23T12:43:22.971Z,70.32
2018-12-23T12:46:00.657Z,69.76
2018-12-23T12:48:34.555Z,70.06
2018-12-23T12:51:09.110Z,69.79
2018-12-23T12:53:43.846Z,69.72
2018-12-23T12:56:18.843Z,69.85
2018-12-23T12:58:53.431Z,70.74
2018-12-23T13:01:28.400Z,70.33
2018-12-23T13:04:06.898Z,70.17
2018-12-23T13:06:41.342Z,70.87
2018-12-23T13:09:16.534Z,71.33
2018-12-23T13:11:51.665Z,71.42
2018-12-23T13:14:30.907Z,72.58
2018-12-23T13:17:06.745Z,72.20
2018-12-23T13:19:41.834Z,71.81
2018-12-23T13:22:18.440Z,71.97
2018-12-23T13:24:59.302Z,71.45
2018-12-23T13:27:37.091Z,72.50
2018-12-23T13:30:11.791Z,70.08
2018-12-23T13:32:48.170Z,69.69
2018-12-23T13:35:37.313Z,70.00
2018-12-23T13:38:28.290Z,69.57
2018-12-23T13:41:14.551Z,70.03
2018-12-23T13:44:08.554Z,70.40
2018-12-23T13:48:59.453Z,70.44
2018-12-23T13:52:01.517Z,67.92
2018-12-23T13:54:50.377Z,68.49
2018-12-23T14:00:44.872Z,69.27
2018-12-23T14:03:36.578Z,70.12
2018-12-23T14:06:28.739Z,70.85
2018-12-23T14:09:32.359Z,71.93
2018-12-23T14:12:12.643Z,72.99
2018-12-23T14:14:47.686Z,75.50
2018-12-23T14:17:22.546Z,76.13
2018-12-23T14:19:58.087Z,76.51
2018-12-23T14:22:32.495Z,77.14
2018-12-23T14:25:07.577Z,78.54
2018-12-23T14:27:41.883Z,79.54
2018-12-23T14:30:16.892Z,80.48
2018-12-23T14:32:51.700Z,81.22
2018-12-23T14:35:26.388Z,81.80
2018-12-23T14:38:02.399Z,82.57
2018-12-23T14:40:37.225Z,82.95
2018-12-23T14:43:11.792Z,83.83
2018-12-23T14:45:46.630Z,83.66
2018-12-23T14:48:21.156Z,83.62
2018-12-23T14:50:55.916Z,84.46
2018-12-23T14:53:30.922Z,84.40
2018-12-23T14:56:06.128Z,84.70
2018-12-23T14:58:42.255Z,85.36
2018-12-23T15:01:16.727Z,86.23
2018-12-23T15:03:51.773Z,86.10
2018-12-23T15:06:26.684Z,86.28
2018-12-23T15:09:02.408Z,85.92
2018-12-23T15:11:37.415Z,85.57
2018-12-23T15:14:12.639Z,85.95
2018-12-23T15:16:47.260Z,86.13
2018-12-23T15:19:22.254Z,86.79
2018-12-23T15:22:01.790Z,87.76
2018-12-23T15:24:36.732Z,88.24
2018-12-23T15:27:11.697Z,88.26
2018-12-23T15:29:47.590Z,89.19
2018-12-23T15:32:22.078Z,89.17
2018-12-23T15:34:56.475Z,88.94
2018-12-23T15:37:30.921Z,88.80
2018-12-23T15:40:06.750Z,89.00
2018-12-23T15:42:41.299Z,89.67
2018-12-23T15:45:15.747Z,90.17
2018-12-23T15:47:50.640Z,90.35
2018-12-23T15:50:25.799Z,90.51
2018-12-23T15:53:00.931Z,90.37
2018-12-23T15:55:35.375Z,90.05
2018-12-23T15:58:10.066Z,90.42
2018-12-23T16:00:44.936Z,90.71
2018-12-23T16:03:19.586Z,90.63
2018-12-23T16:05:54.322Z,91.03
2018-12-23T16:08:28.850Z,90.74
2018-12-23T16:11:04.818Z,90.49
2018-12-23T16:13:39.622Z,90.86
2018-12-23T16:16:14.155Z,90.77
2018-12-23T16:18:49.350Z,90.49
2018-12-23T16:21:23.838Z,90.50
2018-12-23T16:23:58.538Z,90.12
2018-12-23T16:26:33.368Z,89.30
2018-12-23T16:29:07.821Z,89.50
2018-12-23T16:31:43.288Z,89.45
2018-12-23T16:34:18.251Z,89.59
2018-12-23T16:36:52.623Z,89.48
2018-12-23T16:39:27.064Z,89.02
2018-12-23T16:42:05.568Z,88.54
2018-12-23T16:44:40.591Z,89.32
2018-12-23T16:47:14.898Z,89.45
2018-12-23T16:49:49.325Z,89.53
2018-12-23T16:52:23.908Z,89.89
2018-12-23T16:54:58.559Z,90.27
2018-12-23T16:57:33.060Z,90.08
2018-12-23T17:00:11.888Z,90.46
2018-12-23T17:02:46.615Z,90.86
2018-12-23T17:05:21.664Z,91.34
2018-12-23T17:07:56.330Z,91.22
2018-12-23T17:10:30.927Z,90.86
2018-12-23T17:13:06.202Z,90.85
2018-12-23T17:15:40.522Z,91.30
2018-12-23T17:18:16.412Z,90.98
2018-12-23T17:20:51.312Z,91.65
2018-12-23T17:23:27.018Z,91.68
2018-12-23T17:26:02.102Z,91.38
2018-12-23T17:28:36.846Z,91.48
2018-12-23T17:31:12.787Z,91.80
2018-12-23T17:33:47.754Z,91.57
2018-12-23T17:36:22.815Z,91.65
2018-12-23T17:38:57.321Z,91.58
2018-12-23T17:41:31.707Z,91.75
2018-12-23T17:44:06.434Z,91.89
2018-12-23T17:46:41.013Z,91.67
2018-12-23T17:49:15.790Z,91.58
2018-12-23T17:51:50.687Z,91.97
2018-12-23T17:54:25.476Z,92.02
2018-12-23T17:57:00.290Z,91.75
2018-12-23T17:59:34.583Z,91.95
2018-12-23T18:02:09.558Z,91.95
2018-12-23T18:04:43.965Z,91.91
2018-12-23T18:07:18.885Z,92.01
2018-12-23T18:09:53.574Z,92.33
2018-12-23T18:12:28.420Z,92.21
2018-12-23T18:15:04.513Z,91.72
2018-12-23T18:17:39.669Z,91.92
2018-12-23T18:20:14.690Z,91.79
2018-12-23T18:22:49.378Z,91.79
2018-12-23T18:25:24.200Z,91.75
2018-12-23T18:27:59.683Z,91.16
2018-12-23T18:30:34.795Z,91.27
2018-12-23T18:33:09.382Z,91.60
2018-12-23T18:35:44.088Z,91.19
2018-12-23T18:38:18.564Z,91.45
2018-12-23T18:40:53.003Z,90.93
2018-12-23T18:43:27.287Z,91.06
2018-12-23T18:46:02.665Z,90.70
2018-12-23T18:48:37.014Z,90.51
2018-12-23T18:51:11.595Z,91.00
2018-12-23T18:53:46.008Z,90.38
2018-12-23T18:56:26.987Z,91.00
2018-12-23T18:59:01.639Z,90.81
2018-12-23T19:01:38.291Z,90.90
2018-12-23T19:04:13.342Z,90.88
2018-12-23T19:06:48.132Z,91.32
2018-12-23T19:09:29.880Z,90.31
2018-12-23T19:14:18.573Z,89.55
2018-12-23T19:19:06.473Z,90.59
2018-12-23T19:21:51.903Z,90.87
2018-12-23T19:24:41.051Z,90.51
2018-12-23T19:27:26.888Z,89.78
2018-12-23T19:30:12.266Z,89.67
2018-12-23T19:33:14.438Z,89.48
2018-12-23T19:38:02.990Z,89.55
2018-12-23T19:41:17.303Z,88.88
2018-12-23T19:44:09.459Z,88.90
2018-12-23T19:47:11.142Z,87.83
2018-12-23T19:49:58.866Z,88.37
2018-12-23T19:52:44.787Z,88.30
2018-12-23T19:55:36.156Z,88.60
2018-12-23T19:58:24.482Z,88.28
2018-12-23T20:01:18.855Z,88.01
2018-12-23T20:04:13.371Z,87.28
2018-12-23T20:06:59.063Z,88.02
2018-12-23T20:11:49.679Z,88.07
2018-12-23T20:14:33.242Z,88.72
2018-12-23T20:21:28.738Z,89.11
2018-12-23T20:25:18.279Z,89.82
2018-12-23T20:30:07.319Z,89.49
2018-12-23T20:33:02.081Z,89.31
2018-12-23T20:38:59.150Z,88.31
2018-12-23T20:44:01.711Z,87.85
2018-12-23T20:49:46.094Z,87.52
2018-12-23T20:52:42.775Z,87.67
2018-12-23T20:55:30.242Z,87.05
2018-12-23T20:58:20.808Z,86.82
2018-12-23T21:02:12.671Z,86.80
2018-12-23T21:05:11.162Z,85.86
2018-12-23T21:08:04.448Z,86.53
2018-12-23T21:12:05.175Z,86.38
2018-12-23T21:15:33.231Z,86.85
2018-12-23T21:19:01.272Z,86.32
2018-12-23T21:22:16.407Z,86.16
2018-12-23T21:25:44.449Z,85.98
2018-12-23T21:29:12.258Z,86.45
2018-12-23T21:32:38.229Z,86.04
2018-12-23T21:36:06.557Z,86.30
2018-12-23T21:39:34.657Z,85.77
2018-12-23T21:43:02.724Z,84.99
2018-12-23T21:46:30.552Z,84.87
2018-12-23T21:49:58.390Z,84.59
2018-12-23T21:53:14.972Z,84.51
2018-12-23T21:56:38.275Z,84.73
2018-12-23T21:59:54.730Z,84.31
2018-12-23T22:03:25.565Z,84.66
2018-12-23T22:06:53.626Z,84.46
2018-12-23T22:11:33.067Z,84.35
2018-12-23T22:13:33.883Z,84.40
2018-12-23T22:16:25.249Z,84.16
2018-12-23T22:19:15.072Z,84.10
2018-12-23T22:22:04.538Z,84.01
2018-12-23T22:24:54.493Z,84.11
2018-12-23T22:27:44.481Z,83.85
2018-12-23T22:30:34.363Z,83.33
2018-12-23T22:33:23.887Z,83.76
2018-12-23T22:39:43.746Z,83.48
2018-12-23T22:42:33.562Z,83.64
2018-12-23T22:45:23.808Z,83.50
2018-12-23T22:48:13.281Z,83.98
2018-12-23T22:51:03.640Z,85.28
2018-12-23T22:53:53.135Z,85.24
2018-12-23T22:56:43.569Z,84.96
2018-12-23T22:59:34.558Z,84.26
2018-12-23T23:02:22.625Z,84.73
2018-12-23T23:05:12.328Z,84.22
2018-12-23T23:08:02.529Z,83.99
2018-12-23T23:10:51.994Z,83.95
2018-12-23T23:13:42.260Z,83.77
2018-12-23T23:16:31.710Z,83.30
2018-12-23T23:19:21.759Z,83.30
2018-12-23T23:22:14.442Z,82.98
2018-12-23T23:25:04.285Z,82.61
2018-12-23T23:28:35.641Z,82.98
2018-12-23T23:31:27.348Z,83.18
2018-12-23T23:34:17.082Z,82.94
2018-12-23T23:37:07.541Z,82.27
2018-12-23T23:39:58.586Z,82.21
2018-12-23T23:42:48.329Z,82.03
2018-12-23T23:45:39.374Z,82.22
2018-12-23T23:48:32.363Z,82.38
2018-12-23T23:51:21.915Z,81.81
2018-12-23T23:54:11.421Z,81.67
2018-12-23T23:57:20.273Z,82.19
